Disclaimer

Please do not use the information listed here in-flight or in-navigation, as they are not provided to us by the airports but are provided by volunteers, so they might be outdated.

Search


Regions


Airport information page

Radio informations:
COCHABAMBA TWR - 123.5 MHz
Ground (GND) - 121.9 MHz
COCHABAMBA APP - 119.3 MHz

Airport informations:
Latitude: 17° 25' 15.81" S
Longitude: 066° 10' 37.61" W
Elevation: 8360 feet - 2548 meters
Operating hours: N/A
Operating agency: Military-civil joint use airport
Timezone: UTC-4
Fuel: Jet A1, without icing nhibitor.

100/130 MIL Spec, low lead, aviation gasoline (BLUE)

Runway information:
04/22 - 8692 x 148 feet< - >2649 x 45 meters
14/32 - 12460 x 148 feet< - >3798 x 45 meters

Recent METARs:
SLCB 122000Z 36010KT 320V040 9999 FEW033 FEW036CB BKN200 29/09 Q1014
SLCB 122100Z 27014KT 250V310 9999 FEW033 FEW036CB BKN200 26/08 Q1014
SLCB 122100Z 27014KT 250V310 9999 FEW033 FEW036CB BKN200 26/08 Q1014

Airport on the map: